Startpagina
METAR-TAF:

METAR-TAF

Vliegvelden :

Barrancabermeja, Colombia

breedte: 07-01N, lengte: 073-48W, hoogte: 126 m

Actueel weer

Dit bericht is 8 uur en het 48 minuten geleden gemaakt, om 00:00 UTC
Wind 4 kt uit het noorden
Temperatuur 28°C
Vochtigheid 84%
Druk 1009 hPa
Zicht 10 km of meer
Weinig wolken op 1500 ft
Verspreide wolken op 20000 ft

METAR: SKEJ 210000Z 01004KT 9999 FEW015 SCT200 28/25 A2981

Tijdstip: 03:48 (08:48 UTC)


TAF: ontbreekt

Waarnemingen en weersverwachtingen van meer dan 4000 vliegvelden (METAR en TAF).

De beschikbare stations zijn de gele en rode punten op de kaart.

Ga met uw muis naar het station om de naam te zien.

Klik dan om waarnemingen en weersverwachtingen te zien.

kaart wijzigen: klik op de groene knoppen met een zwart kruis om in te zoomen, op de groene knop met een streepje om uit te zoomen of op de groene pijlen voor aangrenzende kaarten.


METAR-TAF: